createdAt,value
2023-08-22T00:01:36.248Z,71.03
2023-08-22T00:04:02.713Z,71.07
2023-08-22T00:06:29.083Z,71.74
2023-08-22T00:08:55.515Z,71.55
2023-08-22T00:11:21.921Z,71.55
2023-08-22T00:13:48.324Z,71.89
2023-08-22T00:16:14.748Z,72.06
2023-08-22T00:18:41.142Z,71.86
2023-08-22T00:21:07.454Z,72.18
2023-08-22T00:23:33.842Z,72.70
2023-08-22T00:26:00.166Z,72.17
2023-08-22T00:28:26.583Z,72.36
2023-08-22T00:30:54.123Z,72.29
2023-08-22T00:33:20.564Z,72.45
2023-08-22T00:35:46.990Z,72.25
2023-08-22T00:38:13.418Z,72.34
2023-08-22T00:40:39.812Z,73.01
2023-08-22T00:43:06.165Z,73.44
2023-08-22T00:45:32.603Z,73.25
2023-08-22T00:47:59.536Z,73.43
2023-08-22T00:50:26.155Z,73.07
2023-08-22T00:52:52.585Z,73.12
2023-08-22T00:55:19.737Z,73.24
2023-08-22T00:57:46.629Z,73.61
2023-08-22T01:00:13.169Z,73.35
2023-08-22T01:02:40.292Z,73.63
2023-08-22T01:05:07.674Z,73.61
2023-08-22T01:07:41.356Z,73.85
2023-08-22T01:10:29.400Z,73.54
2023-08-22T01:12:59.902Z,73.73
2023-08-22T01:15:28.949Z,73.22
2023-08-22T01:17:57.976Z,73.32
2023-08-22T01:20:25.577Z,73.11
2023-08-22T01:22:52.132Z,73.07
2023-08-22T01:25:18.729Z,73.59
2023-08-22T01:27:55.568Z,74.13
2023-08-22T01:30:36.530Z,73.95
2023-08-22T01:33:10.533Z,74.29
2023-08-22T01:35:40.146Z,74.45
2023-08-22T01:38:07.648Z,74.46
2023-08-22T01:40:34.337Z,74.46
2023-08-22T01:43:01.009Z,74.85
2023-08-22T01:45:27.387Z,74.70
2023-08-22T01:47:53.792Z,75.00
2023-08-22T01:50:20.324Z,75.04
2023-08-22T01:52:46.721Z,75.04
2023-08-22T01:55:13.106Z,74.78
2023-08-22T01:57:39.566Z,75.44
2023-08-22T02:00:06.882Z,75.68
2023-08-22T02:02:33.331Z,75.63
2023-08-22T02:04:59.768Z,75.59
2023-08-22T02:07:26.174Z,76.04
2023-08-22T02:09:52.540Z,75.89
2023-08-22T02:12:18.931Z,76.04
2023-08-22T02:14:45.347Z,75.86
2023-08-22T02:17:11.753Z,76.02
2023-08-22T02:19:38.108Z,76.08
2023-08-22T02:22:05.965Z,75.84
2023-08-22T02:24:32.469Z,75.43
2023-08-22T02:26:58.851Z,75.56
2023-08-22T02:29:25.326Z,75.65
2023-08-22T02:31:51.804Z,75.55
2023-08-22T02:34:18.184Z,75.36
2023-08-22T02:36:44.569Z,75.48
2023-08-22T02:39:10.980Z,75.46
2023-08-22T02:41:37.373Z,75.67
2023-08-22T02:44:03.879Z,75.52
2023-08-22T02:46:30.235Z,75.76
2023-08-22T02:48:56.608Z,75.40
2023-08-22T02:51:23.109Z,76.04
2023-08-22T02:53:49.565Z,76.18
2023-08-22T02:56:16.071Z,76.09
2023-08-22T02:58:42.588Z,75.95
2023-08-22T03:01:09.040Z,76.50
2023-08-22T03:03:35.565Z,76.19
2023-08-22T03:06:02.086Z,76.36
2023-08-22T03:08:28.514Z,76.50
2023-08-22T03:11:00.053Z,76.50
2023-08-22T03:13:26.492Z,76.54
2023-08-22T03:15:53.719Z,76.48
2023-08-22T03:18:20.155Z,76.34
2023-08-22T03:20:47.012Z,76.58
2023-08-22T03:23:14.973Z,76.64
2023-08-22T03:25:41.412Z,76.23
2023-08-22T03:28:07.831Z,76.83
2023-08-22T03:30:34.327Z,76.91
2023-08-22T03:33:00.736Z,76.64
2023-08-22T03:35:27.747Z,77.27
2023-08-22T03:37:54.110Z,76.78
2023-08-22T03:40:20.527Z,77.29
2023-08-22T03:42:46.908Z,77.27
2023-08-22T03:45:13.328Z,77.46
2023-08-22T03:47:40.035Z,77.31
2023-08-22T03:50:06.905Z,77.04
2023-08-22T03:52:33.316Z,76.94
2023-08-22T03:54:59.677Z,77.21
2023-08-22T03:57:26.067Z,77.05
2023-08-22T03:59:52.508Z,77.04
2023-08-22T04:02:19.590Z,77.61
2023-08-22T04:04:46.018Z,77.41
2023-08-22T04:07:12.341Z,77.65
2023-08-22T04:09:38.676Z,77.95
2023-08-22T04:12:05.157Z,77.93
2023-08-22T04:14:31.525Z,77.93
2023-08-22T04:16:57.942Z,77.47
2023-08-22T04:19:24.408Z,77.54
2023-08-22T04:21:50.770Z,77.69
2023-08-22T04:24:17.205Z,77.98
2023-08-22T04:26:44.036Z,77.41
2023-08-22T04:29:11.051Z,77.72
2023-08-22T04:31:37.388Z,77.35
2023-08-22T04:34:03.768Z,77.45
2023-08-22T04:36:30.129Z,77.20
2023-08-22T04:38:56.472Z,77.22
2023-08-22T04:41:22.847Z,77.57
2023-08-22T04:43:49.234Z,77.63
2023-08-22T04:46:16.869Z,77.32
2023-08-22T04:48:46.106Z,77.61
2023-08-22T04:51:12.528Z,77.52
2023-08-22T04:53:38.914Z,77.48
2023-08-22T04:56:05.374Z,77.61
2023-08-22T04:58:31.746Z,77.91
2023-08-22T05:00:58.154Z,77.72
2023-08-22T05:03:24.523Z,77.67
2023-08-22T05:05:51.387Z,77.76
2023-08-22T05:08:17.889Z,78.07
2023-08-22T05:10:44.239Z,77.72
2023-08-22T05:13:10.719Z,77.58
2023-08-22T05:15:37.059Z,77.74
2023-08-22T05:18:03.719Z,77.66
2023-08-22T05:20:30.504Z,77.33
2023-08-22T05:22:56.870Z,77.35
2023-08-22T05:25:23.230Z,77.21
2023-08-22T05:27:49.649Z,76.98
2023-08-22T05:30:16.012Z,76.51
2023-08-22T05:32:42.443Z,76.13
2023-08-22T05:35:08.936Z,75.82
2023-08-22T05:37:35.319Z,75.46
2023-08-22T05:40:01.733Z,75.19
2023-08-22T05:42:28.084Z,74.51
2023-08-22T05:44:54.476Z,74.70
2023-08-22T05:47:20.860Z,74.07
2023-08-22T05:49:47.251Z,74.32
2023-08-22T05:52:13.636Z,73.72
2023-08-22T05:54:41.915Z,73.89
2023-08-22T05:57:08.380Z,73.56
2023-08-22T05:59:34.799Z,73.25
2023-08-22T06:02:01.136Z,73.13
2023-08-22T06:04:27.532Z,73.11
2023-08-22T06:06:53.949Z,72.99
2023-08-22T06:09:20.426Z,72.89
2023-08-22T06:11:46.842Z,73.08
2023-08-22T06:14:13.193Z,72.91
2023-08-22T06:16:39.555Z,72.52
2023-08-22T06:19:06.014Z,72.16
2023-08-22T06:21:32.449Z,71.48
2023-08-22T06:23:58.779Z,70.77
2023-08-22T06:26:25.173Z,70.64
2023-08-22T06:28:51.564Z,70.84
2023-08-22T06:31:18.031Z,71.05
2023-08-22T06:33:44.523Z,70.98
2023-08-22T06:36:10.891Z,71.04
2023-08-22T06:38:37.220Z,70.93
2023-08-22T06:41:05.549Z,70.48
2023-08-22T06:43:32.054Z,70.33
2023-08-22T06:45:58.531Z,69.95
2023-08-22T06:48:40.263Z,69.81
2023-08-22T06:51:08.909Z,69.68
2023-08-22T06:53:35.339Z,69.09
2023-08-22T06:56:01.843Z,68.10
2023-08-22T06:58:28.208Z,67.62
2023-08-22T07:00:54.645Z,66.55
2023-08-22T07:03:21.091Z,65.52
2023-08-22T07:05:51.180Z,64.71
2023-08-22T07:08:17.536Z,63.68
2023-08-22T07:10:43.983Z,62.38
2023-08-22T07:13:10.428Z,60.49
2023-08-22T07:15:39.597Z,59.40
2023-08-22T07:18:06.333Z,58.46
2023-08-22T07:20:32.737Z,56.48
2023-08-22T07:22:59.103Z,56.27
2023-08-22T07:25:25.560Z,55.28
2023-08-22T07:27:51.938Z,54.49
2023-08-22T07:30:18.313Z,53.85
2023-08-22T07:32:44.866Z,52.39
2023-08-22T07:35:11.488Z,52.11
2023-08-22T07:37:37.946Z,50.74
2023-08-22T07:40:04.873Z,50.37
2023-08-22T07:42:31.303Z,50.09
2023-08-22T07:44:57.698Z,49.87
2023-08-22T07:47:24.111Z,49.57
2023-08-22T07:49:50.659Z,50.36
2023-08-22T07:52:17.042Z,50.96
2023-08-22T07:54:43.447Z,50.83
2023-08-22T07:57:18.474Z,50.89
2023-08-22T07:59:45.518Z,50.59
2023-08-22T08:02:12.044Z,50.40
2023-08-22T08:04:38.461Z,50.34
2023-08-22T08:07:05.478Z,49.67
2023-08-22T08:09:35.480Z,49.50
2023-08-22T08:12:02.958Z,49.09
2023-08-22T08:14:29.319Z,48.76
2023-08-22T08:16:55.862Z,49.51
2023-08-22T08:19:25.019Z,49.73
2023-08-22T08:21:53.271Z,49.69
2023-08-22T08:24:19.707Z,49.94
2023-08-22T08:26:46.084Z,50.12
2023-08-22T08:29:12.462Z,50.03
2023-08-22T08:31:38.883Z,49.87
2023-08-22T08:34:05.766Z,50.64
2023-08-22T08:36:32.233Z,50.32
2023-08-22T08:38:58.575Z,50.21
2023-08-22T08:41:25.323Z,50.10
2023-08-22T08:43:52.043Z,50.50
2023-08-22T08:46:19.009Z,49.24
2023-08-22T08:48:46.660Z,48.04
2023-08-22T08:51:13.178Z,48.81
2023-08-22T08:53:41.837Z,48.59
2023-08-22T08:56:08.407Z,48.25
2023-08-22T08:58:34.746Z,48.96
2023-08-22T09:01:01.358Z,48.88
2023-08-22T09:03:27.848Z,49.04
2023-08-22T09:05:54.204Z,48.20
2023-08-22T09:08:21.294Z,46.83
2023-08-22T09:10:54.568Z,47.37
2023-08-22T09:13:38.980Z,47.05
2023-08-22T09:16:17.089Z,46.92
2023-08-22T09:18:43.550Z,45.90
2023-08-22T09:21:09.970Z,45.11
2023-08-22T09:23:36.353Z,44.57
2023-08-22T09:26:02.719Z,43.76
2023-08-22T09:28:29.277Z,44.41
2023-08-22T09:30:55.681Z,44.37
2023-08-22T09:33:22.175Z,44.65
2023-08-22T09:35:48.628Z,43.39
2023-08-22T09:38:15.018Z,43.26
2023-08-22T09:40:53.035Z,41.71
2023-08-22T09:43:20.338Z,41.59
2023-08-22T09:45:49.507Z,41.37
2023-08-22T09:48:25.421Z,41.27
2023-08-22T09:50:56.988Z,39.36
2023-08-22T09:53:24.854Z,40.64
2023-08-22T09:55:52.824Z,39.31
2023-08-22T09:58:20.387Z,39.23
2023-08-22T10:00:47.173Z,39.04
2023-08-22T10:03:14.655Z,37.91
2023-08-22T10:05:42.284Z,36.67
2023-08-22T10:08:08.702Z,37.53
2023-08-22T10:10:36.169Z,37.72
2023-08-22T10:13:04.784Z,37.98
2023-08-22T10:15:33.499Z,36.97
2023-08-22T10:18:00.446Z,36.41
2023-08-22T10:20:27.101Z,36.10
2023-08-22T10:22:53.643Z,35.02
2023-08-22T10:25:20.131Z,35.85
2023-08-22T10:27:49.318Z,35.77
2023-08-22T10:30:15.684Z,36.25
2023-08-22T10:32:50.829Z,35.69
2023-08-22T10:35:17.248Z,36.27
2023-08-22T10:37:51.659Z,36.12
2023-08-22T10:40:25.759Z,36.59
2023-08-22T10:43:03.254Z,36.67
2023-08-22T10:45:37.693Z,37.63
2023-08-22T10:48:08.766Z,37.84
2023-08-22T10:50:35.241Z,36.98
2023-08-22T10:53:26.390Z,35.38
2023-08-22T10:55:53.814Z,35.83
2023-08-22T10:58:41.337Z,36.15
2023-08-22T11:01:10.453Z,37.04
2023-08-22T11:03:37.388Z,37.49
2023-08-22T11:06:11.922Z,38.36
2023-08-22T11:08:38.928Z,38.59
2023-08-22T11:11:05.838Z,38.37
2023-08-22T11:13:36.762Z,38.32
2023-08-22T11:16:03.549Z,38.41
2023-08-22T11:18:29.959Z,39.00
2023-08-22T11:20:56.733Z,39.48
2023-08-22T11:23:23.280Z,38.87
2023-08-22T11:25:49.642Z,39.21
2023-08-22T11:28:16.062Z,39.31
2023-08-22T11:30:42.480Z,39.32
2023-08-22T11:33:09.242Z,39.39
2023-08-22T11:35:35.658Z,39.72
2023-08-22T11:38:02.094Z,40.19
2023-08-22T11:40:28.729Z,40.75
2023-08-22T11:42:57.683Z,40.14
2023-08-22T11:45:24.299Z,38.94
2023-08-22T11:47:56.218Z,38.12
2023-08-22T11:50:30.132Z,37.20
2023-08-22T11:53:09.639Z,38.38
2023-08-22T11:55:39.940Z,37.73
2023-08-22T11:58:06.340Z,38.92
2023-08-22T12:00:33.760Z,39.28
2023-08-22T12:03:01.364Z,40.77
2023-08-22T12:05:35.827Z,39.87
2023-08-22T12:08:07.925Z,40.24
2023-08-22T12:10:46.883Z,40.18
2023-08-22T12:13:15.012Z,39.20
2023-08-22T12:15:42.023Z,38.97
2023-08-22T12:18:10.075Z,38.00
2023-08-22T12:20:38.580Z,37.14
2023-08-22T12:23:05.695Z,36.31
2023-08-22T12:25:33.163Z,35.76
2023-08-22T12:27:59.471Z,34.51
2023-08-22T12:30:26.486Z,34.42
2023-08-22T12:32:52.991Z,33.75
2023-08-22T12:35:19.406Z,34.15
2023-08-22T12:37:46.005Z,33.77
2023-08-22T12:40:12.530Z,33.57
2023-08-22T12:42:39.397Z,34.56
2023-08-22T12:45:09.631Z,34.09
2023-08-22T12:47:37.523Z,33.92
2023-08-22T12:50:04.677Z,33.38
2023-08-22T12:52:31.141Z,33.68
2023-08-22T12:54:57.501Z,33.23
2023-08-22T12:57:23.909Z,33.44
2023-08-22T12:59:50.518Z,32.10
2023-08-22T13:02:17.044Z,31.59
2023-08-22T13:04:43.594Z,31.34
2023-08-22T13:07:11.452Z,32.37
2023-08-22T13:09:37.861Z,33.08
2023-08-22T13:12:04.517Z,33.79
2023-08-22T13:14:30.910Z,33.06
2023-08-22T13:16:57.333Z,32.92
2023-08-22T13:19:23.686Z,33.14
2023-08-22T13:21:50.105Z,32.95
2023-08-22T13:24:16.472Z,32.20
2023-08-22T13:26:43.022Z,33.04
2023-08-22T13:29:09.390Z,33.10
2023-08-22T13:31:35.819Z,32.94
2023-08-22T13:34:02.513Z,33.47
2023-08-22T13:36:29.071Z,32.73
2023-08-22T13:38:55.494Z,32.50
2023-08-22T13:41:21.916Z,33.23
2023-08-22T13:43:48.366Z,33.36
2023-08-22T13:46:14.850Z,34.12
2023-08-22T13:48:41.195Z,34.25
2023-08-22T13:51:07.746Z,31.24
2023-08-22T13:53:34.073Z,30.93
2023-08-22T13:56:00.599Z,31.51
2023-08-22T13:58:27.002Z,30.38
2023-08-22T14:00:53.352Z,30.70
2023-08-22T14:03:19.956Z,32.07
2023-08-22T14:05:46.658Z,33.36
2023-08-22T14:08:13.137Z,33.26
2023-08-22T14:10:39.493Z,33.44
2023-08-22T14:13:05.864Z,32.46
2023-08-22T14:15:32.235Z,34.18
2023-08-22T14:17:58.709Z,35.01
2023-08-22T14:20:25.181Z,34.30
2023-08-22T14:22:51.603Z,34.16
2023-08-22T14:25:17.946Z,34.07
2023-08-22T14:27:45.682Z,34.23
2023-08-22T14:30:12.431Z,33.08
2023-08-22T14:32:39.132Z,33.40
2023-08-22T14:35:06.061Z,34.21
2023-08-22T14:37:32.455Z,34.67
2023-08-22T14:39:58.797Z,34.13
2023-08-22T14:42:25.203Z,34.08
2023-08-22T14:44:51.634Z,34.79
2023-08-22T14:47:18.012Z,35.82
2023-08-22T14:49:44.444Z,36.15
2023-08-22T14:52:10.820Z,36.16
2023-08-22T14:54:37.207Z,36.55
2023-08-22T14:57:03.646Z,36.38
2023-08-22T14:59:30.044Z,36.83
2023-08-22T15:01:56.427Z,36.79
2023-08-22T15:04:22.833Z,36.10
2023-08-22T15:06:49.307Z,35.66
2023-08-22T15:09:15.697Z,35.84
2023-08-22T15:11:42.112Z,36.70
2023-08-22T15:14:08.555Z,38.10
2023-08-22T15:16:35.300Z,38.36
2023-08-22T15:19:02.684Z,37.75
2023-08-22T15:21:29.090Z,37.62
2023-08-22T15:23:55.435Z,38.73
2023-08-22T15:26:21.853Z,39.38
2023-08-22T15:28:48.195Z,39.91
2023-08-22T15:31:14.611Z,40.24
2023-08-22T15:33:41.093Z,40.03
2023-08-22T15:36:07.539Z,40.90
2023-08-22T15:38:35.118Z,41.24
2023-08-22T15:41:02.226Z,41.40
2023-08-22T15:43:31.199Z,40.91
2023-08-22T15:45:57.562Z,41.65
2023-08-22T15:48:23.917Z,42.51
2023-08-22T15:50:50.295Z,42.59
2023-08-22T15:53:16.676Z,42.59
2023-08-22T15:55:43.053Z,42.87
2023-08-22T15:58:09.461Z,43.53
2023-08-22T16:00:35.997Z,43.38
2023-08-22T16:03:02.492Z,43.71
2023-08-22T16:05:28.988Z,43.53
2023-08-22T16:07:55.410Z,43.87
2023-08-22T16:10:21.944Z,43.68
2023-08-22T16:12:48.439Z,43.40
2023-08-22T16:15:14.858Z,43.98
2023-08-22T16:17:41.354Z,44.32
2023-08-22T16:20:08.261Z,44.90
2023-08-22T16:22:34.711Z,44.81
2023-08-22T16:25:01.116Z,44.95
2023-08-22T16:27:37.108Z,45.59
2023-08-22T16:30:06.353Z,45.13
2023-08-22T16:32:32.772Z,45.95
2023-08-22T16:35:01.389Z,45.54
2023-08-22T16:37:27.785Z,45.47
2023-08-22T16:39:54.118Z,45.84
2023-08-22T16:42:20.493Z,45.11
2023-08-22T16:44:46.883Z,45.23
2023-08-22T16:47:13.301Z,45.97
2023-08-22T16:49:39.657Z,46.29
2023-08-22T16:52:06.080Z,46.39
2023-08-22T16:54:32.493Z,46.30
2023-08-22T16:56:58.895Z,46.40
2023-08-22T16:59:25.315Z,46.46
2023-08-22T17:01:51.700Z,46.94
2023-08-22T17:04:18.106Z,47.71
2023-08-22T17:06:44.543Z,48.05
2023-08-22T17:09:10.883Z,48.10
2023-08-22T17:11:37.264Z,47.88
2023-08-22T17:14:03.701Z,48.09
2023-08-22T17:16:30.189Z,48.85
2023-08-22T17:18:56.649Z,49.36
2023-08-22T17:21:23.073Z,49.01
2023-08-22T17:23:49.416Z,49.27
2023-08-22T17:26:15.834Z,49.63
2023-08-22T17:28:42.173Z,50.53
2023-08-22T17:31:09.916Z,50.41
2023-08-22T17:33:36.825Z,50.41
2023-08-22T17:36:04.330Z,50.27
2023-08-22T17:38:30.846Z,50.39
2023-08-22T17:41:10.379Z,50.55
2023-08-22T17:43:39.550Z,50.87
2023-08-22T17:46:06.142Z,51.43
2023-08-22T17:48:32.584Z,51.72
2023-08-22T17:51:00.533Z,51.75
2023-08-22T17:53:27.913Z,51.99
2023-08-22T17:55:54.470Z,52.14
2023-08-22T17:58:21.543Z,52.43
2023-08-22T18:00:52.310Z,52.94
2023-08-22T18:03:19.731Z,53.05
2023-08-22T18:05:59.126Z,53.36
2023-08-22T18:08:26.405Z,53.47
2023-08-22T18:10:53.603Z,53.30
2023-08-22T18:13:20.292Z,54.16
2023-08-22T18:16:02.731Z,55.52
2023-08-22T18:18:33.800Z,55.48
2023-08-22T18:21:08.406Z,55.44
2023-08-22T18:23:35.030Z,55.35
2023-08-22T18:26:03.225Z,55.61
2023-08-22T18:28:32.285Z,55.93
2023-08-22T18:31:01.614Z,56.22
2023-08-22T18:33:28.204Z,56.45
2023-08-22T18:35:54.603Z,56.30
2023-08-22T18:38:24.417Z,56.57
2023-08-22T18:40:54.801Z,56.41
2023-08-22T18:43:21.558Z,56.83
2023-08-22T18:45:48.440Z,56.95
2023-08-22T18:48:15.016Z,57.19
2023-08-22T18:50:41.444Z,57.18
2023-08-22T18:53:07.866Z,58.30
2023-08-22T18:55:35.449Z,58.04
2023-08-22T18:58:02.315Z,58.07
2023-08-22T19:00:28.775Z,57.96
2023-08-22T19:02:57.334Z,58.38
2023-08-22T19:05:24.222Z,57.94
2023-08-22T19:07:50.698Z,58.14
2023-08-22T19:10:17.281Z,58.80
2023-08-22T19:12:43.697Z,58.69
2023-08-22T19:15:10.302Z,59.19
2023-08-22T19:17:36.670Z,59.36
2023-08-22T19:20:03.228Z,59.71
2023-08-22T19:22:29.637Z,59.53
2023-08-22T19:24:56.018Z,60.34
2023-08-22T19:27:22.380Z,60.41
2023-08-22T19:29:49.178Z,60.28
2023-08-22T19:32:23.786Z,60.52
2023-08-22T19:34:58.004Z,60.43
2023-08-22T19:37:24.427Z,61.21
2023-08-22T19:39:50.946Z,61.78
2023-08-22T19:42:17.613Z,61.90
2023-08-22T19:44:43.958Z,61.65
2023-08-22T19:47:10.386Z,62.02
2023-08-22T19:49:36.879Z,62.54
2023-08-22T19:52:03.461Z,62.71
2023-08-22T19:54:29.976Z,62.59
2023-08-22T19:56:56.354Z,63.23
2023-08-22T19:59:22.724Z,63.14
2023-08-22T20:01:49.189Z,63.30
2023-08-22T20:04:15.610Z,63.51
2023-08-22T20:06:42.045Z,63.64
2023-08-22T20:09:12.725Z,64.56
2023-08-22T20:11:40.152Z,63.92
2023-08-22T20:14:08.446Z,64.13
2023-08-22T20:16:35.905Z,64.53
2023-08-22T20:19:02.390Z,64.06
2023-08-22T20:21:28.784Z,64.58
2023-08-22T20:23:55.696Z,64.73
2023-08-22T20:26:22.880Z,64.87
2023-08-22T20:28:49.679Z,65.35
2023-08-22T20:31:17.100Z,65.27
2023-08-22T20:33:46.368Z,65.48
2023-08-22T20:36:12.799Z,65.79
2023-08-22T20:38:42.144Z,66.02
2023-08-22T20:41:08.490Z,65.92
2023-08-22T20:43:34.911Z,66.40
2023-08-22T20:46:01.420Z,66.68
2023-08-22T20:48:27.965Z,66.98
2023-08-22T20:50:54.827Z,66.87
2023-08-22T20:53:21.165Z,67.13
2023-08-22T20:55:49.255Z,67.42
2023-08-22T20:58:15.537Z,67.70
2023-08-22T21:00:41.931Z,67.45
2023-08-22T21:03:08.475Z,67.46
2023-08-22T21:05:35.779Z,67.63
2023-08-22T21:08:02.121Z,67.67
2023-08-22T21:10:31.809Z,67.93
2023-08-22T21:12:58.537Z,68.09
2023-08-22T21:15:24.900Z,67.90
2023-08-22T21:17:51.694Z,68.00
2023-08-22T21:20:18.159Z,68.11
2023-08-22T21:22:44.839Z,68.45
2023-08-22T21:25:11.640Z,68.40
2023-08-22T21:27:38.136Z,68.64
2023-08-22T21:30:04.937Z,68.62
2023-08-22T21:32:31.437Z,68.46
2023-08-22T21:34:57.840Z,69.25
2023-08-22T21:37:24.462Z,69.14
2023-08-22T21:39:50.869Z,69.17
2023-08-22T21:42:17.202Z,69.22
2023-08-22T21:44:44.025Z,69.21
2023-08-22T21:47:13.064Z,69.10
2023-08-22T21:49:39.399Z,68.95
2023-08-22T21:52:05.928Z,69.46
2023-08-22T21:54:32.369Z,69.59
2023-08-22T21:56:58.742Z,69.38
2023-08-22T21:59:25.183Z,69.63
2023-08-22T22:01:51.584Z,69.55
2023-08-22T22:04:17.938Z,69.68
2023-08-22T22:06:44.369Z,69.78
2023-08-22T22:09:10.777Z,69.80
2023-08-22T22:11:37.104Z,69.88
2023-08-22T22:14:03.599Z,70.14
2023-08-22T22:16:43.021Z,70.00
2023-08-22T22:19:11.044Z,70.18
2023-08-22T22:21:37.487Z,70.56
2023-08-22T22:24:03.970Z,70.50
2023-08-22T22:26:30.382Z,70.55
2023-08-22T22:28:56.738Z,71.03
2023-08-22T22:31:23.156Z,70.67
2023-08-22T22:33:49.489Z,70.62
2023-08-22T22:36:16.225Z,71.07
2023-08-22T22:38:42.562Z,70.81
2023-08-22T22:41:08.908Z,71.10
2023-08-22T22:43:35.319Z,71.29
2023-08-22T22:46:02.165Z,71.49
2023-08-22T22:48:28.856Z,71.46
2023-08-22T22:50:55.816Z,71.62
2023-08-22T22:53:22.242Z,71.73
2023-08-22T22:55:48.764Z,71.55
2023-08-22T22:58:15.263Z,71.79
2023-08-22T23:00:41.703Z,71.49
2023-08-22T23:03:08.164Z,71.68
2023-08-22T23:05:34.655Z,72.00
2023-08-22T23:08:02.256Z,71.94
2023-08-22T23:10:28.619Z,71.80
2023-08-22T23:12:55.403Z,72.45
2023-08-22T23:15:21.784Z,72.43
2023-08-22T23:17:48.472Z,72.38
2023-08-22T23:20:16.164Z,72.99
2023-08-22T23:22:44.515Z,72.98
2023-08-22T23:25:11.613Z,72.74
2023-08-22T23:27:38.933Z,72.59
2023-08-22T23:30:09.557Z,72.96
2023-08-22T23:32:36.051Z,73.53
2023-08-22T23:35:05.005Z,73.83
2023-08-22T23:37:31.950Z,73.73
2023-08-22T23:39:58.899Z,73.48
2023-08-22T23:42:25.359Z,73.77
2023-08-22T23:44:51.809Z,74.26
2023-08-22T23:47:18.215Z,73.78
2023-08-22T23:49:44.922Z,74.28
2023-08-22T23:52:11.547Z,74.61
2023-08-22T23:54:38.244Z,74.62
2023-08-22T23:57:05.463Z,74.68
2023-08-22T23:59:32.976Z,74.74
